createdAt,value
2022-09-15T00:01:27.947Z,99981.58
2022-09-15T00:03:56.000Z,99981.02
2022-09-15T00:06:24.168Z,99983.45
2022-09-15T00:08:52.135Z,99979.75
2022-09-15T00:11:24.203Z,99982.50
2022-09-15T00:13:53.598Z,99975.83
2022-09-15T00:16:24.569Z,99974.92
2022-09-15T00:18:53.063Z,99973.48
2022-09-15T00:21:24.790Z,99973.83
2022-09-15T00:23:52.912Z,99973.24
2022-09-15T00:26:29.105Z,99971.97
2022-09-15T00:28:58.713Z,99972.49
2022-09-15T00:31:29.001Z,99969.46
2022-09-15T00:33:58.846Z,99968.03
2022-09-15T00:36:27.230Z,99969.23
2022-09-15T00:38:55.570Z,99972.01
2022-09-15T00:41:24.637Z,99966.90
2022-09-15T00:43:55.743Z,99969.88
2022-09-15T00:46:40.809Z,99969.67
2022-09-15T00:49:20.758Z,99961.05
2022-09-15T00:52:03.645Z,99961.23
2022-09-15T00:54:37.786Z,99959.65
2022-09-15T00:57:12.409Z,99957.71
2022-09-15T00:59:43.086Z,99956.31
2022-09-15T01:02:16.540Z,99953.19
2022-09-15T01:04:44.846Z,99953.40
2022-09-15T01:07:17.292Z,99952.58
2022-09-15T01:09:56.231Z,99949.41
2022-09-15T01:12:26.026Z,99943.85
2022-09-15T01:14:54.097Z,99942.80
2022-09-15T01:17:43.099Z,99938.11
2022-09-15T01:20:26.277Z,99929.56
2022-09-15T01:23:21.998Z,99929.77
2022-09-15T01:26:28.895Z,99924.91
2022-09-15T01:29:21.805Z,99923.69
2022-09-15T01:32:22.057Z,99922.64
2022-09-15T01:34:58.198Z,99921.23
2022-09-15T01:37:32.839Z,99919.16
2022-09-15T01:40:03.544Z,99920.40
2022-09-15T01:42:33.669Z,99919.05
2022-09-15T01:45:08.921Z,99919.25
2022-09-15T01:47:37.669Z,99918.23
2022-09-15T01:50:08.759Z,99915.30
2022-09-15T01:52:41.265Z,99913.43
2022-09-15T01:55:20.569Z,99908.54
2022-09-15T01:57:49.326Z,99907.54
2022-09-15T02:00:17.526Z,99907.56
2022-09-15T02:02:59.935Z,99909.00
2022-09-15T02:05:36.194Z,99906.56
2022-09-15T02:08:16.114Z,99906.61
2022-09-15T02:10:51.690Z,99905.76
2022-09-15T02:13:28.160Z,99903.14
2022-09-15T02:16:00.401Z,99904.89
2022-09-15T02:18:45.467Z,99905.43
2022-09-15T02:21:23.599Z,99908.30
2022-09-15T02:23:57.522Z,99903.42
2022-09-15T02:26:28.551Z,99904.66
2022-09-15T02:29:00.520Z,99902.77
2022-09-15T02:31:31.584Z,99901.73
2022-09-15T02:34:06.995Z,99899.11
2022-09-15T02:36:35.145Z,99897.92
2022-09-15T02:39:09.423Z,99900.41
2022-09-15T02:41:39.207Z,99904.14
2022-09-15T02:44:09.205Z,99900.85
2022-09-15T02:46:37.484Z,99900.02
2022-09-15T02:49:05.863Z,99896.05
2022-09-15T02:51:34.244Z,99896.85
2022-09-15T02:54:02.723Z,99894.64
2022-09-15T02:56:30.688Z,99891.19
2022-09-15T02:58:58.759Z,99890.16
2022-09-15T03:01:34.793Z,99889.66
2022-09-15T03:04:04.346Z,99887.77
2022-09-15T03:06:35.362Z,99885.55
2022-09-15T03:09:08.144Z,99883.17
2022-09-15T03:11:37.239Z,99883.91
2022-09-15T03:14:06.910Z,99883.89
2022-09-15T03:16:35.936Z,99882.13
2022-09-15T03:19:04.944Z,99877.59
2022-09-15T03:21:33.211Z,99879.15
2022-09-15T03:24:01.285Z,99878.66
2022-09-15T03:26:29.464Z,99877.26
2022-09-15T03:28:57.523Z,99875.67
2022-09-15T03:31:25.750Z,99876.92
2022-09-15T03:33:56.202Z,99878.34
2022-09-15T03:36:24.313Z,99875.02
2022-09-15T03:38:53.017Z,99875.73
2022-09-15T03:41:21.259Z,99878.34
2022-09-15T03:43:49.529Z,99878.98
2022-09-15T03:46:18.263Z,99874.60
2022-09-15T03:48:47.693Z,99873.20
2022-09-15T03:51:15.787Z,99873.38
2022-09-15T03:53:43.960Z,99868.27
2022-09-15T03:56:19.231Z,99868.09
2022-09-15T03:58:47.240Z,99868.45
2022-09-15T04:01:15.392Z,99864.59
2022-09-15T04:03:47.583Z,99867.05
2022-09-15T04:06:20.288Z,99865.50
2022-09-15T04:08:49.902Z,99864.98
2022-09-15T04:11:19.296Z,99861.50
2022-09-15T04:13:48.391Z,99859.40
2022-09-15T04:16:19.632Z,99859.21
2022-09-15T04:18:47.705Z,99858.55
2022-09-15T04:21:19.089Z,99859.14
2022-09-15T04:23:47.749Z,99857.05
2022-09-15T04:26:34.139Z,99858.27
2022-09-15T04:29:04.952Z,99860.25
2022-09-15T04:31:34.135Z,99854.14
2022-09-15T04:34:02.452Z,99858.30
2022-09-15T04:36:31.986Z,99851.98
2022-09-15T04:39:00.374Z,99843.94
2022-09-15T04:41:28.912Z,99849.23
2022-09-15T04:43:57.171Z,99849.02
2022-09-15T04:46:26.139Z,99850.19
2022-09-15T04:48:54.556Z,99844.85
2022-09-15T04:51:24.042Z,99845.14
2022-09-15T04:53:52.295Z,99845.92
2022-09-15T04:56:23.394Z,99846.00
2022-09-15T04:59:02.413Z,99841.21
2022-09-15T05:01:35.393Z,99839.39
2022-09-15T05:04:04.307Z,99835.72
2022-09-15T05:06:33.533Z,99826.33
2022-09-15T05:09:09.061Z,99822.91
2022-09-15T05:11:38.797Z,99827.90
2022-09-15T05:14:07.212Z,99830.25
2022-09-15T05:16:35.607Z,99835.36
2022-09-15T05:19:04.825Z,99836.73
2022-09-15T05:21:33.163Z,99834.52
2022-09-15T05:24:01.518Z,99834.86
2022-09-15T05:26:30.373Z,99834.13
2022-09-15T05:28:58.399Z,99835.41
2022-09-15T05:31:31.187Z,99828.23
2022-09-15T05:34:04.834Z,99826.63
2022-09-15T05:36:33.177Z,99826.52
2022-09-15T05:39:02.019Z,99828.79
2022-09-15T05:41:30.811Z,99831.29
2022-09-15T05:43:59.359Z,99827.64
2022-09-15T05:46:29.341Z,99826.63
2022-09-15T05:48:58.841Z,99822.34
2022-09-15T05:51:27.760Z,99826.20
2022-09-15T05:53:56.105Z,99824.06
2022-09-15T05:56:24.578Z,99821.60
2022-09-15T05:58:52.689Z,99818.34
2022-09-15T06:01:23.712Z,99823.11
2022-09-15T06:03:53.027Z,99824.02
2022-09-15T06:06:22.298Z,99825.14
2022-09-15T06:08:58.137Z,99826.55
2022-09-15T06:11:29.803Z,99823.43
2022-09-15T06:14:03.362Z,99820.65
2022-09-15T06:16:34.335Z,99819.65
2022-09-15T06:19:03.495Z,99821.31
2022-09-15T06:21:33.009Z,99818.88
2022-09-15T06:24:07.434Z,99819.55
2022-09-15T06:26:35.637Z,99821.56
2022-09-15T06:29:05.353Z,99824.00
2022-09-15T06:31:35.784Z,99818.83
2022-09-15T06:36:50.849Z,99801.43
2022-09-15T06:39:19.356Z,99803.48
2022-09-15T06:42:01.836Z,99799.10
2022-09-15T06:44:30.734Z,99797.95
2022-09-15T06:46:58.902Z,99792.14
2022-09-15T06:49:27.546Z,99791.22
2022-09-15T06:51:56.544Z,99785.63
2022-09-15T06:54:24.855Z,99790.73
2022-09-15T06:56:53.163Z,99782.48
2022-09-15T06:59:24.067Z,99780.46
2022-09-15T07:02:02.638Z,99775.30
2022-09-15T07:04:37.207Z,99777.45
2022-09-15T07:07:05.384Z,99774.61
2022-09-15T07:09:33.454Z,99774.21
2022-09-15T07:12:01.740Z,99772.41
2022-09-15T07:14:30.926Z,99774.91
2022-09-15T07:16:58.997Z,99781.55
2022-09-15T07:19:27.285Z,99782.75
2022-09-15T07:21:55.338Z,99780.19
2022-09-15T07:24:23.310Z,99786.56
2022-09-15T07:26:52.295Z,99791.16
2022-09-15T07:29:20.584Z,99791.53
2022-09-15T07:31:49.008Z,99792.16
2022-09-15T07:34:17.759Z,99793.65
2022-09-15T07:36:45.814Z,99799.60
2022-09-15T07:39:14.186Z,99795.42
2022-09-15T07:41:42.259Z,99797.58
2022-09-15T07:44:13.246Z,99795.29
2022-09-15T07:46:41.267Z,99798.77
2022-09-15T07:49:10.871Z,99796.95
2022-09-15T07:51:38.941Z,99799.22
2022-09-15T07:54:07.523Z,99799.30
2022-09-15T07:56:35.696Z,99799.77
2022-09-15T07:59:03.876Z,99794.38
2022-09-15T08:01:31.831Z,99790.85
2022-09-15T08:03:59.909Z,99787.13
2022-09-15T08:06:28.389Z,99791.63
2022-09-15T08:09:00.468Z,99798.99
2022-09-15T08:11:30.094Z,99804.38
2022-09-15T08:14:01.477Z,99808.63
2022-09-15T08:16:29.973Z,99802.69
2022-09-15T08:18:58.913Z,99802.59
2022-09-15T08:21:28.077Z,99800.23
2022-09-15T08:23:58.807Z,99800.11
2022-09-15T08:26:28.943Z,99793.34
2022-09-15T08:28:58.193Z,99794.02
2022-09-15T08:31:26.611Z,99788.89
2022-09-15T08:33:56.128Z,99786.72
2022-09-15T08:36:28.153Z,99784.05
2022-09-15T08:38:56.994Z,99784.01
2022-09-15T08:41:33.980Z,99778.88
2022-09-15T08:44:34.166Z,99779.81
2022-09-15T08:47:05.665Z,99787.18
2022-09-15T08:49:51.669Z,99790.11
2022-09-15T08:52:27.131Z,99789.88
2022-09-15T08:54:59.009Z,99789.92
2022-09-15T08:57:27.598Z,99793.29
2022-09-15T08:59:56.283Z,99790.90
2022-09-15T09:02:50.738Z,99785.52
2022-09-15T09:05:37.474Z,99789.34
2022-09-15T09:08:26.449Z,99789.89
2022-09-15T09:11:03.413Z,99793.23
2022-09-15T09:13:53.178Z,99789.14
2022-09-15T09:17:00.480Z,99792.23
2022-09-15T09:19:40.025Z,99793.57
2022-09-15T09:22:23.264Z,99798.48
2022-09-15T09:24:55.725Z,99789.33
2022-09-15T09:27:28.992Z,99789.15
2022-09-15T09:30:23.317Z,99787.36
2022-09-15T09:33:05.318Z,99787.03
2022-09-15T09:35:49.854Z,99792.98
2022-09-15T09:38:32.776Z,99791.25
2022-09-15T09:41:02.670Z,99783.59
2022-09-15T09:43:32.503Z,99781.48
2022-09-15T09:46:01.013Z,99783.42
2022-09-15T09:48:30.516Z,99781.33
2022-09-15T09:50:58.658Z,99782.13
2022-09-15T09:53:32.324Z,99778.65
2022-09-15T09:56:24.768Z,99773.86
2022-09-15T09:58:54.856Z,99767.64
2022-09-15T10:01:26.336Z,99763.44
2022-09-15T10:04:21.433Z,99758.80
2022-09-15T10:06:50.157Z,99760.61
2022-09-15T10:09:19.602Z,99760.59
2022-09-15T10:11:55.009Z,99764.52
2022-09-15T10:14:30.962Z,99763.39
2022-09-15T10:17:13.987Z,99765.61
2022-09-15T10:19:47.165Z,99761.70
2022-09-15T10:22:27.627Z,99760.27
2022-09-15T10:24:55.903Z,99761.75
2022-09-15T10:27:28.994Z,99758.48
2022-09-15T10:30:16.009Z,99757.18
2022-09-15T10:32:44.895Z,99761.47
2022-09-15T10:35:20.860Z,99760.46
2022-09-15T10:38:03.839Z,99755.96
2022-09-15T10:40:37.557Z,99756.21
2022-09-15T10:43:24.505Z,99760.29
2022-09-15T10:46:04.407Z,99763.48
2022-09-15T10:49:03.532Z,99762.91
2022-09-15T10:51:31.424Z,99770.50
2022-09-15T10:54:16.984Z,99768.39
2022-09-15T10:56:50.065Z,99759.59
2022-09-15T10:59:25.156Z,99761.92
2022-09-15T11:02:10.976Z,99758.37
2022-09-15T11:05:11.824Z,99754.82
2022-09-15T11:07:54.371Z,99756.92
2022-09-15T11:10:28.645Z,99748.85
2022-09-15T11:12:57.176Z,99754.04
2022-09-15T11:15:37.500Z,99753.59
2022-09-15T11:18:26.956Z,99747.79
2022-09-15T11:21:27.293Z,99751.33
2022-09-15T11:24:13.486Z,99749.06
2022-09-15T11:26:45.770Z,99749.81
2022-09-15T11:29:26.342Z,99750.80
2022-09-15T11:32:26.136Z,99749.84
2022-09-15T11:35:00.882Z,99750.18
2022-09-15T11:37:45.513Z,99745.52
2022-09-15T11:40:20.242Z,99736.27
2022-09-15T11:43:03.168Z,99730.22
2022-09-15T11:45:38.607Z,99731.97
2022-09-15T11:48:28.687Z,99738.14
2022-09-15T11:51:00.221Z,99736.39
2022-09-15T11:53:35.647Z,99736.63
2022-09-15T11:56:28.949Z,99738.42
2022-09-15T11:59:27.738Z,99742.65
2022-09-15T12:02:23.657Z,99750.85
2022-09-15T12:05:09.780Z,99749.94
2022-09-15T12:07:51.444Z,99743.75
2022-09-15T12:10:25.966Z,99744.41
2022-09-15T12:12:54.612Z,99743.30
2022-09-15T12:15:27.504Z,99738.63
2022-09-15T12:18:21.358Z,99739.69
2022-09-15T12:21:11.613Z,99741.61
2022-09-15T12:23:51.273Z,99739.83
2022-09-15T12:26:21.989Z,99738.45
2022-09-15T12:28:59.262Z,99743.02
2022-09-15T12:31:30.042Z,99751.19
2022-09-15T12:33:59.679Z,99749.88
2022-09-15T12:36:44.772Z,99750.80
2022-09-15T12:39:23.360Z,99754.17
2022-09-15T12:42:00.452Z,99760.23
2022-09-15T12:44:36.380Z,99763.61
2022-09-15T12:47:08.110Z,99771.46
2022-09-15T12:49:43.732Z,99775.52
2022-09-15T12:52:12.828Z,99780.75
2022-09-15T12:54:45.422Z,99776.73
2022-09-15T12:57:36.714Z,99783.48
2022-09-15T13:00:31.251Z,99782.88
2022-09-15T13:03:00.584Z,99779.52
2022-09-15T13:05:53.123Z,99781.44
2022-09-15T13:08:24.912Z,99776.72
2022-09-15T13:11:11.601Z,99778.64
2022-09-15T13:14:10.748Z,99775.70
2022-09-15T13:16:41.655Z,99774.27
2022-09-15T13:19:30.537Z,99779.57
2022-09-15T13:22:01.810Z,99783.94
2022-09-15T13:24:32.649Z,99781.19
2022-09-15T13:27:02.704Z,99783.92
2022-09-15T13:29:33.105Z,99786.16
2022-09-15T13:32:23.735Z,99784.70
2022-09-15T13:35:18.126Z,99783.21
2022-09-15T13:38:22.998Z,99783.02
2022-09-15T13:41:03.478Z,99776.53
2022-09-15T13:43:58.995Z,99777.86
2022-09-15T13:46:45.178Z,99774.60
2022-09-15T13:49:42.336Z,99775.71
2022-09-15T13:52:22.548Z,99776.50
2022-09-15T13:55:35.449Z,99777.98
2022-09-15T14:01:06.799Z,99772.31
2022-09-15T14:04:09.124Z,99773.78
2022-09-15T14:06:40.629Z,99770.11
2022-09-15T14:09:28.402Z,99766.35
2022-09-15T14:12:02.260Z,99769.00
2022-09-15T14:14:41.204Z,99772.73
2022-09-15T14:17:27.382Z,99773.27
2022-09-15T14:19:58.434Z,99776.04
2022-09-15T14:22:31.748Z,99777.86
2022-09-15T14:25:05.355Z,99778.16
2022-09-15T14:27:35.658Z,99769.46
2022-09-15T14:30:07.748Z,99772.14
2022-09-15T14:32:40.009Z,99770.67
2022-09-15T14:35:16.014Z,99769.16
2022-09-15T14:37:55.443Z,99770.79
2022-09-15T14:40:29.389Z,99769.91
2022-09-15T14:42:58.480Z,99772.72
2022-09-15T14:48:30.810Z,99773.24
2022-09-15T14:51:05.103Z,99773.86
2022-09-15T14:53:37.789Z,99773.62
2022-09-15T14:56:12.334Z,99773.09
2022-09-15T14:59:05.054Z,99770.38
2022-09-15T15:01:40.218Z,99770.96
2022-09-15T15:04:17.366Z,99770.06
2022-09-15T15:07:09.646Z,99770.20
2022-09-15T15:09:47.028Z,99772.40
2022-09-15T15:12:23.818Z,99768.86
2022-09-15T15:14:56.372Z,99766.48
2022-09-15T15:17:25.143Z,99766.73
2022-09-15T15:20:16.181Z,99767.48
2022-09-15T15:22:45.817Z,99769.02
2022-09-15T15:25:22.331Z,99766.09
2022-09-15T15:27:56.049Z,99766.44
2022-09-15T15:30:30.704Z,99758.99
2022-09-15T15:33:05.128Z,99756.38
2022-09-15T15:35:35.869Z,99760.78
2022-09-15T15:38:09.921Z,99761.88
2022-09-15T15:40:40.831Z,99761.23
2022-09-15T15:43:26.539Z,99763.62
2022-09-15T15:46:01.411Z,99766.44
2022-09-15T15:48:38.239Z,99763.35
2022-09-15T15:51:07.779Z,99761.69
2022-09-15T15:53:35.910Z,99761.08
2022-09-15T15:56:03.953Z,99764.52
2022-09-15T15:58:31.918Z,99763.71
2022-09-15T16:01:00.577Z,99761.98
2022-09-15T16:03:28.803Z,99763.67
2022-09-15T16:06:00.457Z,99771.09
2022-09-15T16:08:32.120Z,99767.06
2022-09-15T16:11:02.554Z,99773.05
2022-09-15T16:13:31.429Z,99769.52
2022-09-15T16:16:01.352Z,99771.15
2022-09-15T16:18:29.784Z,99766.67
2022-09-15T16:20:57.992Z,99766.70
2022-09-15T16:23:26.030Z,99766.02
2022-09-15T16:26:04.521Z,99767.46
2022-09-15T16:28:32.650Z,99766.31
2022-09-15T16:31:00.664Z,99773.34
2022-09-15T16:33:28.735Z,99769.48
2022-09-15T16:36:06.607Z,99771.81
2022-09-15T16:38:36.277Z,99776.04
2022-09-15T16:41:11.023Z,99777.50
2022-09-15T16:43:39.007Z,99780.55
2022-09-15T16:46:11.536Z,99782.36
2022-09-15T16:48:41.482Z,99786.44
2022-09-15T16:51:31.630Z,99785.28
2022-09-15T16:54:00.253Z,99789.23
2022-09-15T16:56:28.636Z,99793.92
2022-09-15T16:59:00.102Z,99794.59
2022-09-15T17:01:29.078Z,99798.71
2022-09-15T17:03:57.759Z,99798.42
2022-09-15T17:06:25.802Z,99796.91
2022-09-15T17:08:54.432Z,99801.91
2022-09-15T17:11:25.352Z,99800.77
2022-09-15T17:13:53.711Z,99799.58
2022-09-15T17:16:22.175Z,99798.70
2022-09-15T17:18:50.381Z,99799.23
2022-09-15T17:21:20.109Z,99799.78
2022-09-15T17:23:49.887Z,99794.46
2022-09-15T17:26:21.463Z,99797.55
2022-09-15T17:28:51.167Z,99801.40
2022-09-15T17:31:22.157Z,99805.98
2022-09-15T17:33:51.010Z,99807.15
2022-09-15T17:36:19.164Z,99807.84
2022-09-15T17:38:49.118Z,99810.52
2022-09-15T17:41:20.019Z,99813.52
2022-09-15T17:43:49.508Z,99814.38
2022-09-15T17:46:17.509Z,99814.02
2022-09-15T17:48:45.662Z,99818.05
2022-09-15T17:51:19.820Z,99826.98
2022-09-15T17:53:48.031Z,99830.85
2022-09-15T17:56:16.425Z,99834.18
2022-09-15T17:58:45.496Z,99831.20
2022-09-15T18:01:14.916Z,99826.57
2022-09-15T18:03:45.216Z,99827.54
2022-09-15T18:06:14.138Z,99828.27
2022-09-15T18:08:42.204Z,99827.49
2022-09-15T18:11:13.350Z,99825.11
2022-09-15T18:13:41.993Z,99826.60
2022-09-15T18:16:14.606Z,99827.08
2022-09-15T18:18:43.200Z,99825.05
2022-09-15T18:21:29.385Z,99829.05
2022-09-15T18:23:57.459Z,99830.41
2022-09-15T18:26:26.798Z,99828.93
2022-09-15T18:28:56.331Z,99833.39
2022-09-15T18:31:24.992Z,99831.92
2022-09-15T18:33:53.444Z,99832.43
2022-09-15T18:36:21.827Z,99834.50
2022-09-15T18:38:53.290Z,99833.98
2022-09-15T18:41:21.529Z,99831.15
2022-09-15T18:43:49.824Z,99828.90
2022-09-15T18:46:18.633Z,99829.11
2022-09-15T18:48:47.073Z,99828.63
2022-09-15T18:51:23.871Z,99833.73
2022-09-15T18:53:57.677Z,99831.73
2022-09-15T18:56:25.731Z,99832.66
2022-09-15T18:58:55.124Z,99831.81
2022-09-15T19:01:24.400Z,99833.60
2022-09-15T19:03:52.389Z,99833.09
2022-09-15T19:06:20.667Z,99833.14
2022-09-15T19:08:49.066Z,99833.88
2022-09-15T19:11:17.878Z,99827.80
2022-09-15T19:13:46.420Z,99825.72
2022-09-15T19:16:14.516Z,99827.84
2022-09-15T19:18:45.128Z,99826.09
2022-09-15T19:21:13.290Z,99829.08
2022-09-15T19:23:41.259Z,99830.64
2022-09-15T19:26:14.039Z,99832.77
2022-09-15T19:28:44.520Z,99832.77
2022-09-15T19:31:13.872Z,99836.27
2022-09-15T19:33:42.755Z,99836.61
2022-09-15T19:36:27.540Z,99832.07
2022-09-15T19:39:00.328Z,99831.53
2022-09-15T19:41:28.945Z,99833.02
2022-09-15T19:43:57.773Z,99836.41
2022-09-15T19:46:26.082Z,99839.29
2022-09-15T19:48:55.575Z,99837.09
2022-09-15T19:51:24.237Z,99839.95
2022-09-15T19:53:56.520Z,99839.80
2022-09-15T19:56:26.459Z,99839.35
2022-09-15T19:58:56.585Z,99836.44
2022-09-15T20:01:28.013Z,99836.67
2022-09-15T20:06:42.356Z,99835.77
2022-09-15T20:09:10.692Z,99840.84
2022-09-15T20:11:38.684Z,99838.60
2022-09-15T20:14:07.902Z,99839.51
2022-09-15T20:16:35.889Z,99837.97
2022-09-15T20:19:05.025Z,99842.02
2022-09-15T20:21:49.665Z,99841.70
2022-09-15T20:24:20.587Z,99841.26
2022-09-15T20:26:48.742Z,99840.75
2022-09-15T20:29:17.566Z,99841.66
2022-09-15T20:31:47.022Z,99843.96
2022-09-15T20:34:15.472Z,99844.00
2022-09-15T20:36:44.721Z,99845.83
2022-09-15T20:39:15.535Z,99844.11
2022-09-15T20:41:46.985Z,99845.73
2022-09-15T20:44:15.866Z,99847.69
2022-09-15T20:46:44.456Z,99845.48
2022-09-15T20:49:12.768Z,99842.05
2022-09-15T20:51:40.903Z,99841.58
2022-09-15T20:54:11.041Z,99842.86
2022-09-15T20:56:39.197Z,99841.37
2022-09-15T20:59:10.622Z,99838.98
2022-09-15T21:01:40.120Z,99837.98
2022-09-15T21:04:10.163Z,99835.41
2022-09-15T21:06:39.291Z,99836.15
2022-09-15T21:09:07.555Z,99829.39
2022-09-15T21:11:36.059Z,99829.79
2022-09-15T21:14:04.478Z,99828.10
2022-09-15T21:16:35.176Z,99826.19
2022-09-15T21:19:03.709Z,99826.75
2022-09-15T21:21:33.735Z,99829.91
2022-09-15T21:24:07.645Z,99827.48
2022-09-15T21:27:01.101Z,99829.83
2022-09-15T21:29:30.166Z,99827.41
2022-09-15T21:31:58.309Z,99829.02
2022-09-15T21:34:26.582Z,99825.35
2022-09-15T21:36:54.924Z,99825.85
2022-09-15T21:39:23.401Z,99824.42
2022-09-15T21:41:51.472Z,99824.56
2022-09-15T21:44:19.743Z,99823.83
2022-09-15T21:46:48.432Z,99828.15
2022-09-15T21:49:18.249Z,99826.88
2022-09-15T21:51:46.622Z,99826.13
2022-09-15T21:54:15.311Z,99824.84
2022-09-15T21:56:43.580Z,99829.70
2022-09-15T21:59:11.871Z,99830.53
2022-09-15T22:01:40.738Z,99830.65
2022-09-15T22:04:10.631Z,99832.06
2022-09-15T22:06:40.791Z,99828.02
2022-09-15T22:09:13.358Z,99832.58
2022-09-15T22:11:42.040Z,99830.85
2022-09-15T22:14:10.730Z,99833.49
2022-09-15T22:16:40.222Z,99836.68
2022-09-15T22:19:11.271Z,99835.85
2022-09-15T22:21:42.033Z,99833.59
2022-09-15T22:24:13.569Z,99830.47
2022-09-15T22:26:43.015Z,99828.92
2022-09-15T22:29:11.647Z,99826.38
2022-09-15T22:31:40.976Z,99831.40
2022-09-15T22:34:09.120Z,99831.77
2022-09-15T22:36:37.182Z,99826.58
2022-09-15T22:39:06.897Z,99820.33
2022-09-15T22:41:38.804Z,99819.48
2022-09-15T22:44:13.778Z,99823.34
2022-09-15T22:46:42.061Z,99817.80
2022-09-15T22:49:10.139Z,99825.47
2022-09-15T22:51:38.200Z,99817.77
2022-09-15T22:54:06.474Z,99810.82
2022-09-15T22:56:34.657Z,99808.84
2022-09-15T22:59:03.126Z,99811.95
2022-09-15T23:01:31.226Z,99812.61
2022-09-15T23:04:02.038Z,99815.19
2022-09-15T23:06:33.077Z,99812.16
2022-09-15T23:09:04.983Z,99812.77
2022-09-15T23:11:33.885Z,99812.70
2022-09-15T23:14:02.411Z,99811.25
2022-09-15T23:16:31.064Z,99813.98
2022-09-15T23:19:00.005Z,99815.86
2022-09-15T23:21:28.562Z,99812.30
2022-09-15T23:23:56.840Z,99812.06
2022-09-15T23:26:26.169Z,99813.80
2022-09-15T23:28:54.772Z,99813.98
2022-09-15T23:31:22.929Z,99810.69
2022-09-15T23:33:51.071Z,99814.38
2022-09-15T23:36:19.962Z,99815.27
2022-09-15T23:38:49.581Z,99813.41
2022-09-15T23:41:18.806Z,99815.55
2022-09-15T23:43:47.550Z,99814.22
2022-09-15T23:46:17.681Z,99815.30
2022-09-15T23:48:45.945Z,99811.83
2022-09-15T23:51:14.221Z,99811.17
2022-09-15T23:53:42.526Z,99812.12
2022-09-15T23:56:10.567Z,99810.94
2022-09-15T23:58:39.047Z,99812.00
